Hambantota, Sri Lanka

10:06 PM IST on July 28, 2014 (GMT +0530)
Mattala Rajapaksa International Airport (VCRI) Elev 0 ft | 6.29 °N, 81.13 °E | Change Station

Current weather conditions updated 1 hour ago

Partly Cloudy
Partly Cloudy
81 °F
Feels Like 85 °F
N
14
Wind Variable Wind from West

Tomorrow is forecast to be Cooler than today.

Today
High -- | Low -- °F
--% Chance of Precip.
Yesterday
High -- | Low -- °F
Precip. -- in
5:59 AM 6:23 PM
Waxing Crescent, 3% visible
Pressure 29.83 in
Visibility 6.2 miles
Clouds Scattered Clouds 1600 ft
Few 8000 ft
Heat Index 85 °F
Dew Point 72 °F
Humidity 74%
Rainfall 0.00 in
Snow Depth Not available.
UV 0 out of 12
Pollen Not available.
Air Quality Not available.
Flu Activity Not available.
METAR VCRI 281510Z 26012KT 9999 SCT016 FEW080 27/22 Q1010 NOSIG

More Conditions Fewer Conditions

Pressure 29.83 in
Visibility 6.2 miles
Clouds Scattered Clouds 1600 ft
Few 8000 ft
Heat Index 85 °F
Dew Point 72 °F
Humidity 74%
Rainfall 0.00 in
Snow Depth Not available.
UV 0 out of 12
Pollen Not available.
Air Quality Not available.
Flu Activity Not available.
METAR VCRI 281510Z 26012KT 9999 SCT016 FEW080 27/22 Q1010 NOSIG

More Conditions Fewer Conditions

10-Day Weather Forecast

Almanac

Astronomy

Jul. 28, 2014 Rise Set
Actual Time 5:59 AM IST 6:23 PM IST
Civil Twilight 5:37 AM IST 6:46 PM IST
Nautical Twilight 5:12 AM IST 7:11 PM IST
Astronomical Twilight 4:46 AM IST 7:37 PM IST
Moon 6:50 AM IST 7:21 PM IST
Length of Visible Light 13h 08m
Length of Day
12h 23m
Tomorrow will be 0m 14s shorter.
Waxing Crescent, 3% of the Moon is Illuminated
Today
Waxing Crescent
Aug 3
First Quarter
Aug 10
Full
Aug 17
Last Quarter
Aug 25
New

Today's Extremes

Country Highs Country Lows

Community

WunderPhotos

Upload Photos

1,738,407 photos uploaded!

Nearby

Snow Depth

Not available.

Earthquake Activity

City Distance Mag. Time & Date
No recent earthquake activity has been reported nearby.
Minimum magnitude displayed is 2.5.

Coastal Water Temperatures

Place Temperature
No Stations Reporting

Nearby Weather Stations

There are no personal weather stations in this area.